Observations for CATANIA FONTANAROSA, Italy (LICC)

LICC 191950Z 04004KT CAVOK 23/20 Q1019  
LICC 191920Z 06005KT 9999 FEW050 22/20 Q1018
LICC 191850Z 09006KT 9999 FEW050 22/19 Q1018
LICC 191820Z 09004KT 9999 FEW020 SCT050 22/19 Q1018 
LICC 191750Z 09006KT 9999 FEW020 22/19 Q1018
LICC 191720Z 09006KT 9999 FEW020 23/19 Q1018
LICC 191650Z 10006KT 9999 FEW020 SCT025 23/19 Q1018 
LICC 191620Z 08007KT 9999 SCT020 23/19 Q1018
LICC 191550Z 10007KT 9999 FEW030 23/19 Q1017
LICC 191520Z 09007KT 9999 FEW030 24/19 Q1017
LICC 191450Z 10008KT 9999 FEW030 24/19 Q1017
LICC 191420Z 11009KT 080V140 9999 FEW030 24/19 Q1017
LICC 191350Z 11010KT 9999 FEW030 24/20 Q1017
LICC 191320Z 12011KT 9999 FEW030 24/19 Q1017
LICC 191250Z 13012KT 100V160 9999 FEW030 24/19 Q1017
LICC 191220Z 13012KT 9999 FEW030 25/18 Q1017
LICC 191150Z 12011KT 9999 FEW050 25/18 Q1018
LICC 191120Z VRB04KT 9999 FEW050 27/16 Q1018
LICC 191050Z 22005KT 160V280 CAVOK 26/16 Q1018  
LICC 190950Z 23007KT 200V260 CAVOK 25/17 Q1019  
LICC 190920Z 22008KT CAVOK 24/15 Q1019  
LICC 190850Z 22008KT 190V250 CAVOK 23/15 Q1019  
LICC 190820Z 24008KT 9999 FEW120 22/15 Q1019
LICC 190750Z 22007KT 9999 FEW110 21/14 Q1019
LICC 190720Z 22006KT 9999 FEW120 20/14 Q1019
LICC 190650Z 22005KT CAVOK 17/13 Q1019  
LICC 190620Z 23004KT CAVOK 16/13 Q1018  
LICC 190550Z 23005KT CAVOK 15/12 Q1018  
LICC 190520Z 24005KT CAVOK 15/12 Q1018  
LICC 190450Z 23004KT CAVOK 15/12 Q1018  
LICC 190420Z 23005KT CAVOK 15/12 Q1018  
LICC 190350Z 22005KT CAVOK 15/13 Q1018  
LICC 190320Z 25004KT CAVOK 15/13 Q1017  
LICC 190250Z 23005KT CAVOK 16/13 Q1017  
LICC 190220Z 22005KT CAVOK 16/13 Q1017  
LICC 190150Z 21006KT 9999 FEW040 17/14 Q1017
LICC 190120Z 24003KT 9999 SCT030 18/15 Q1018
LICC 190050Z 28004KT 9999 SCT030 18/16 Q1018
LICC 190020Z 27006KT 9999 FEW030 16/15 Q1018
LICC 182350Z 24006KT CAVOK 16/14 Q1018  
LICC 182320Z 26003KT CAVOK 17/15 Q1018  
LICC 182250Z 23004KT 9999 FEW040 17/15 Q1018
LICC 182220Z 02004KT 9999 FEW040 20/15 Q1018
LICC 182150Z 36004KT 9999 FEW040 21/15 Q1018
LICC 182120Z 36004KT 340V040 9999 SCT035 21/16 Q1018
LICC 182050Z 01004KT 330V040 9999 FEW040 21/15 Q1018
LICC 182020Z 02005KT 9999 FEW040 21/15 Q1018
LICC 181950Z 03006KT 9999 FEW040 21/15 Q1018
LICC 181920Z 02003KT 350V080 CAVOK 21/16 Q1018